Port Deposit, Maryland
Current Conditions -  °F | °C
As of 10:50 AM on Monday 24 Nov 2014 (Local Time) from KMTN Reporting Station
Broken Clouds Broken Clouds  
Wind Chill: 64°   Ceiling: 3200
Heat Index: 64°   Visibility: 10mi
Dew Point: 61°   Wind: 9mph
Humidity: 88%   Direction: 160°SSE
Pressure: 29.69"   Gusts: NA
Location:  39.6°N, 76.12°W
Report Text: KMTN 241550Z 16008KT 10SM BKN032 18/16 A2969
Loading
Personal Weather Stations






























Interactive Weather Map New forecast layout! Learn more

10-Day Weather Forecast

Advertisements
Track Severe Weather on mobile